sensor_id;sensor_type;location;lat;lon;timestamp;P1;durP1;ratioP1;P2;durP2;ratioP2
65853;SDS011;52627;48.838;2.402;2023-04-25T00:00:20;7.40;;;3.30;;
65853;SDS011;52627;48.838;2.402;2023-04-25T00:02:46;5.60;;;2.80;;
65853;SDS011;52627;48.838;2.402;2023-04-25T00:05:14;5.90;;;2.80;;
65853;SDS011;52627;48.838;2.402;2023-04-25T00:07:43;6.20;;;3.30;;
65853;SDS011;52627;48.838;2.402;2023-04-25T00:10:10;7.10;;;3.00;;
65853;SDS011;52627;48.838;2.402;2023-04-25T00:12:40;6.60;;;2.90;;
65853;SDS011;52627;48.838;2.402;2023-04-25T00:15:08;5.70;;;2.90;;
65853;SDS011;52627;48.838;2.402;2023-04-25T00:17:36;4.50;;;2.60;;
65853;SDS011;52627;48.838;2.402;2023-04-25T00:20:05;5.90;;;2.90;;
65853;SDS011;52627;48.838;2.402;2023-04-25T00:22:35;7.40;;;2.90;;
65853;SDS011;52627;48.838;2.402;2023-04-25T00:25:05;5.70;;;2.90;;
65853;SDS011;52627;48.838;2.402;2023-04-25T00:27:32;8.10;;;3.10;;
65853;SDS011;52627;48.838;2.402;2023-04-25T00:30:00;7.10;;;3.30;;
65853;SDS011;52627;48.838;2.402;2023-04-25T00:32:26;6.50;;;3.00;;
65853;SDS011;52627;48.838;2.402;2023-04-25T00:34:54;4.30;;;2.70;;
65853;SDS011;52627;48.838;2.402;2023-04-25T00:37:22;7.20;;;3.40;;
65853;SDS011;52627;48.838;2.402;2023-04-25T00:39:49;7.30;;;3.30;;
65853;SDS011;52627;48.838;2.402;2023-04-25T00:42:15;7.50;;;3.20;;
65853;SDS011;52627;48.838;2.402;2023-04-25T00:44:43;6.90;;;2.90;;
65853;SDS011;52627;48.838;2.402;2023-04-25T00:47:11;5.70;;;2.70;;
65853;SDS011;52627;48.838;2.402;2023-04-25T00:49:38;8.60;;;3.30;;
65853;SDS011;52627;48.838;2.402;2023-04-25T00:52:04;8.90;;;3.30;;
65853;SDS011;52627;48.838;2.402;2023-04-25T00:54:31;6.70;;;2.90;;
65853;SDS011;52627;48.838;2.402;2023-04-25T00:56:58;7.10;;;3.00;;
65853;SDS011;52627;48.838;2.402;2023-04-25T00:59:25;8.70;;;3.40;;
65853;SDS011;52627;48.838;2.402;2023-04-25T01:01:52;6.40;;;3.10;;
65853;SDS011;52627;48.838;2.402;2023-04-25T01:04:19;8.70;;;3.40;;
65853;SDS011;52627;48.838;2.402;2023-04-25T01:06:47;6.50;;;3.10;;
65853;SDS011;52627;48.838;2.402;2023-04-25T01:09:14;7.40;;;3.00;;
65853;SDS011;52627;48.838;2.402;2023-04-25T01:11:41;9.20;;;3.30;;
65853;SDS011;52627;48.838;2.402;2023-04-25T01:14:07;6.60;;;3.00;;
65853;SDS011;52627;48.838;2.402;2023-04-25T01:16:34;9.40;;;3.00;;
65853;SDS011;52627;48.838;2.402;2023-04-25T01:19:01;8.70;;;3.20;;
65853;SDS011;52627;48.838;2.402;2023-04-25T01:21:34;9.10;;;3.80;;
65853;SDS011;52627;48.838;2.402;2023-04-25T01:24:01;6.80;;;3.30;;
65853;SDS011;52627;48.838;2.402;2023-04-25T01:26:28;8.20;;;3.80;;
65853;SDS011;52627;48.838;2.402;2023-04-25T01:28:56;9.90;;;3.70;;
65853;SDS011;52627;48.838;2.402;2023-04-25T01:31:25;7.80;;;3.80;;
65853;SDS011;52627;48.838;2.402;2023-04-25T01:33:52;8.40;;;3.80;;
65853;SDS011;52627;48.838;2.402;2023-04-25T01:36:19;7.00;;;3.30;;
65853;SDS011;52627;48.838;2.402;2023-04-25T01:38:47;11.50;;;4.30;;
65853;SDS011;52627;48.838;2.402;2023-04-25T01:41:14;9.60;;;4.10;;
65853;SDS011;52627;48.838;2.402;2023-04-25T01:43:41;9.00;;;4.50;;
65853;SDS011;52627;48.838;2.402;2023-04-25T01:46:08;11.20;;;4.10;;
65853;SDS011;52627;48.838;2.402;2023-04-25T01:48:35;10.60;;;3.90;;
65853;SDS011;52627;48.838;2.402;2023-04-25T01:51:01;8.60;;;4.20;;
65853;SDS011;52627;48.838;2.402;2023-04-25T01:53:29;9.30;;;4.10;;
65853;SDS011;52627;48.838;2.402;2023-04-25T01:55:56;9.10;;;4.00;;
65853;SDS011;52627;48.838;2.402;2023-04-25T01:58:22;11.10;;;4.90;;
65853;SDS011;52627;48.838;2.402;2023-04-25T02:00:49;10.50;;;4.30;;
65853;SDS011;52627;48.838;2.402;2023-04-25T02:03:16;11.10;;;4.90;;
65853;SDS011;52627;48.838;2.402;2023-04-25T02:05:43;10.50;;;4.40;;
65853;SDS011;52627;48.838;2.402;2023-04-25T02:08:10;12.80;;;5.40;;
65853;SDS011;52627;48.838;2.402;2023-04-25T02:10:37;11.10;;;4.30;;
65853;SDS011;52627;48.838;2.402;2023-04-25T02:13:04;9.70;;;4.60;;
65853;SDS011;52627;48.838;2.402;2023-04-25T02:15:31;10.40;;;4.90;;
65853;SDS011;52627;48.838;2.402;2023-04-25T02:17:59;9.30;;;4.50;;
65853;SDS011;52627;48.838;2.402;2023-04-25T02:20:29;11.30;;;4.20;;
65853;SDS011;52627;48.838;2.402;2023-04-25T02:22:57;12.30;;;4.00;;
65853;SDS011;52627;48.838;2.402;2023-04-25T02:25:24;10.70;;;4.90;;
65853;SDS011;52627;48.838;2.402;2023-04-25T02:27:51;10.60;;;4.30;;
65853;SDS011;52627;48.838;2.402;2023-04-25T02:30:17;12.00;;;5.00;;
65853;SDS011;52627;48.838;2.402;2023-04-25T02:32:44;12.60;;;4.20;;
65853;SDS011;52627;48.838;2.402;2023-04-25T02:35:11;10.60;;;4.50;;
65853;SDS011;52627;48.838;2.402;2023-04-25T02:37:39;13.40;;;5.00;;
65853;SDS011;52627;48.838;2.402;2023-04-25T02:40:07;9.30;;;4.00;;
65853;SDS011;52627;48.838;2.402;2023-04-25T02:42:34;14.70;;;5.00;;
65853;SDS011;52627;48.838;2.402;2023-04-25T02:45:02;14.20;;;4.90;;
65853;SDS011;52627;48.838;2.402;2023-04-25T02:47:29;13.60;;;5.10;;
65853;SDS011;52627;48.838;2.402;2023-04-25T02:49:57;14.60;;;5.00;;
65853;SDS011;52627;48.838;2.402;2023-04-25T02:52:24;8.70;;;4.70;;
65853;SDS011;52627;48.838;2.402;2023-04-25T02:54:51;12.80;;;5.20;;
65853;SDS011;52627;48.838;2.402;2023-04-25T02:57:17;13.90;;;4.90;;
65853;SDS011;52627;48.838;2.402;2023-04-25T02:59:44;12.10;;;5.50;;
65853;SDS011;52627;48.838;2.402;2023-04-25T03:02:11;11.30;;;5.10;;
65853;SDS011;52627;48.838;2.402;2023-04-25T03:04:38;15.50;;;5.30;;
65853;SDS011;52627;48.838;2.402;2023-04-25T03:07:05;12.80;;;5.10;;
65853;SDS011;52627;48.838;2.402;2023-04-25T03:09:32;10.50;;;5.70;;
65853;SDS011;52627;48.838;2.402;2023-04-25T03:11:59;13.00;;;5.60;;
65853;SDS011;52627;48.838;2.402;2023-04-25T03:14:26;13.00;;;5.60;;
65853;SDS011;52627;48.838;2.402;2023-04-25T03:16:53;10.90;;;5.40;;
65853;SDS011;52627;48.838;2.402;2023-04-25T03:19:20;12.60;;;5.60;;
65853;SDS011;52627;48.838;2.402;2023-04-25T03:21:47;12.20;;;5.50;;
65853;SDS011;52627;48.838;2.402;2023-04-25T03:24:14;10.50;;;6.10;;
65853;SDS011;52627;48.838;2.402;2023-04-25T03:26:41;14.70;;;5.70;;
65853;SDS011;52627;48.838;2.402;2023-04-25T03:29:08;12.50;;;5.50;;
65853;SDS011;52627;48.838;2.402;2023-04-25T03:31:35;13.20;;;5.60;;
65853;SDS011;52627;48.838;2.402;2023-04-25T03:34:02;16.00;;;6.40;;
65853;SDS011;52627;48.838;2.402;2023-04-25T03:36:28;13.70;;;5.70;;
65853;SDS011;52627;48.838;2.402;2023-04-25T03:38:55;13.00;;;6.10;;
65853;SDS011;52627;48.838;2.402;2023-04-25T03:41:22;11.30;;;5.60;;
65853;SDS011;52627;48.838;2.402;2023-04-25T03:43:49;10.10;;;5.40;;
65853;SDS011;52627;48.838;2.402;2023-04-25T03:46:16;10.40;;;5.50;;
65853;SDS011;52627;48.838;2.402;2023-04-25T03:48:43;10.20;;;5.10;;
65853;SDS011;52627;48.838;2.402;2023-04-25T03:51:10;11.70;;;5.80;;
65853;SDS011;52627;48.838;2.402;2023-04-25T03:53:37;10.90;;;5.30;;
65853;SDS011;52627;48.838;2.402;2023-04-25T03:56:04;12.40;;;6.40;;
65853;SDS011;52627;48.838;2.402;2023-04-25T03:58:31;12.90;;;6.00;;
65853;SDS011;52627;48.838;2.402;2023-04-25T04:00:58;11.90;;;5.40;;
65853;SDS011;52627;48.838;2.402;2023-04-25T04:03:25;12.20;;;5.60;;
65853;SDS011;52627;48.838;2.402;2023-04-25T04:05:52;14.60;;;5.70;;
65853;SDS011;52627;48.838;2.402;2023-04-25T04:08:19;12.00;;;5.60;;
65853;SDS011;52627;48.838;2.402;2023-04-25T04:10:46;12.50;;;5.90;;
65853;SDS011;52627;48.838;2.402;2023-04-25T04:13:13;10.90;;;5.70;;
65853;SDS011;52627;48.838;2.402;2023-04-25T04:15:40;12.50;;;5.70;;
65853;SDS011;52627;48.838;2.402;2023-04-25T04:18:06;11.00;;;5.80;;
65853;SDS011;52627;48.838;2.402;2023-04-25T04:20:33;15.70;;;6.40;;
65853;SDS011;52627;48.838;2.402;2023-04-25T04:23:00;14.50;;;6.70;;
65853;SDS011;52627;48.838;2.402;2023-04-25T04:25:27;10.40;;;6.00;;
65853;SDS011;52627;48.838;2.402;2023-04-25T04:27:54;12.80;;;6.30;;
65853;SDS011;52627;48.838;2.402;2023-04-25T04:30:23;14.60;;;6.20;;
65853;SDS011;52627;48.838;2.402;2023-04-25T04:32:51;11.70;;;6.10;;
65853;SDS011;52627;48.838;2.402;2023-04-25T04:35:18;12.10;;;5.90;;
65853;SDS011;52627;48.838;2.402;2023-04-25T04:37:45;11.30;;;5.70;;
65853;SDS011;52627;48.838;2.402;2023-04-25T04:40:12;14.90;;;6.70;;
65853;SDS011;52627;48.838;2.402;2023-04-25T04:42:43;15.50;;;6.00;;
65853;SDS011;52627;48.838;2.402;2023-04-25T04:45:11;10.80;;;6.00;;
65853;SDS011;52627;48.838;2.402;2023-04-25T04:47:39;11.50;;;6.30;;
65853;SDS011;52627;48.838;2.402;2023-04-25T04:50:08;13.40;;;5.80;;
65853;SDS011;52627;48.838;2.402;2023-04-25T04:52:36;12.20;;;5.90;;
65853;SDS011;52627;48.838;2.402;2023-04-25T04:55:05;12.60;;;5.70;;
65853;SDS011;52627;48.838;2.402;2023-04-25T04:57:32;13.60;;;6.20;;
65853;SDS011;52627;48.838;2.402;2023-04-25T04:59:59;15.20;;;6.30;;
65853;SDS011;52627;48.838;2.402;2023-04-25T05:02:27;12.90;;;6.30;;
65853;SDS011;52627;48.838;2.402;2023-04-25T05:04:55;12.50;;;6.70;;
65853;SDS011;52627;48.838;2.402;2023-04-25T05:07:22;11.90;;;6.50;;
65853;SDS011;52627;48.838;2.402;2023-04-25T05:09:49;13.60;;;6.80;;
65853;SDS011;52627;48.838;2.402;2023-04-25T05:12:16;16.10;;;6.50;;
65853;SDS011;52627;48.838;2.402;2023-04-25T05:14:43;13.70;;;6.90;;
65853;SDS011;52627;48.838;2.402;2023-04-25T05:17:09;12.10;;;6.80;;
65853;SDS011;52627;48.838;2.402;2023-04-25T05:19:36;13.10;;;6.80;;
65853;SDS011;52627;48.838;2.402;2023-04-25T05:22:03;13.40;;;6.90;;
65853;SDS011;52627;48.838;2.402;2023-04-25T05:24:30;12.30;;;7.10;;
65853;SDS011;52627;48.838;2.402;2023-04-25T05:26:57;11.70;;;6.80;;
65853;SDS011;52627;48.838;2.402;2023-04-25T05:29:24;15.80;;;6.80;;
65853;SDS011;52627;48.838;2.402;2023-04-25T05:31:50;11.20;;;7.30;;
65853;SDS011;52627;48.838;2.402;2023-04-25T05:34:17;13.40;;;6.70;;
65853;SDS011;52627;48.838;2.402;2023-04-25T05:36:44;14.30;;;7.50;;
65853;SDS011;52627;48.838;2.402;2023-04-25T05:39:17;14.40;;;8.00;;
65853;SDS011;52627;48.838;2.402;2023-04-25T05:41:44;14.50;;;7.20;;
65853;SDS011;52627;48.838;2.402;2023-04-25T05:44:11;16.70;;;7.10;;
65853;SDS011;52627;48.838;2.402;2023-04-25T05:46:38;14.20;;;7.20;;
65853;SDS011;52627;48.838;2.402;2023-04-25T05:49:05;14.20;;;8.70;;
65853;SDS011;52627;48.838;2.402;2023-04-25T05:51:32;16.00;;;7.80;;
65853;SDS011;52627;48.838;2.402;2023-04-25T05:53:58;20.70;;;8.50;;
65853;SDS011;52627;48.838;2.402;2023-04-25T05:56:25;20.60;;;8.80;;
65853;SDS011;52627;48.838;2.402;2023-04-25T05:58:52;15.90;;;7.70;;
65853;SDS011;52627;48.838;2.402;2023-04-25T06:01:19;15.70;;;8.60;;
65853;SDS011;52627;48.838;2.402;2023-04-25T06:03:47;14.90;;;8.40;;
65853;SDS011;52627;48.838;2.402;2023-04-25T06:06:14;19.40;;;10.00;;
65853;SDS011;52627;48.838;2.402;2023-04-25T06:08:41;17.60;;;9.40;;
65853;SDS011;52627;48.838;2.402;2023-04-25T06:11:08;14.40;;;8.50;;
65853;SDS011;52627;48.838;2.402;2023-04-25T06:13:34;17.20;;;9.60;;
65853;SDS011;52627;48.838;2.402;2023-04-25T06:16:01;14.30;;;9.00;;
65853;SDS011;52627;48.838;2.402;2023-04-25T06:18:28;16.10;;;8.80;;
65853;SDS011;52627;48.838;2.402;2023-04-25T06:20:55;15.70;;;8.90;;
65853;SDS011;52627;48.838;2.402;2023-04-25T06:23:22;14.80;;;8.00;;
65853;SDS011;52627;48.838;2.402;2023-04-25T06:25:49;11.10;;;7.20;;
65853;SDS011;52627;48.838;2.402;2023-04-25T06:28:16;11.60;;;7.00;;
65853;SDS011;52627;48.838;2.402;2023-04-25T06:30:43;12.50;;;6.60;;
65853;SDS011;52627;48.838;2.402;2023-04-25T06:33:09;11.40;;;6.20;;
65853;SDS011;52627;48.838;2.402;2023-04-25T06:35:36;13.40;;;5.80;;
65853;SDS011;52627;48.838;2.402;2023-04-25T06:38:03;10.30;;;5.40;;
65853;SDS011;52627;48.838;2.402;2023-04-25T06:40:30;8.90;;;4.60;;
65853;SDS011;52627;48.838;2.402;2023-04-25T06:42:57;9.30;;;4.90;;
65853;SDS011;52627;48.838;2.402;2023-04-25T06:45:23;9.10;;;5.10;;
65853;SDS011;52627;48.838;2.402;2023-04-25T06:47:50;12.30;;;5.50;;
65853;SDS011;52627;48.838;2.402;2023-04-25T06:50:17;8.10;;;5.20;;
65853;SDS011;52627;48.838;2.402;2023-04-25T06:52:44;8.70;;;4.60;;
65853;SDS011;52627;48.838;2.402;2023-04-25T06:55:10;9.70;;;4.80;;
65853;SDS011;52627;48.838;2.402;2023-04-25T06:57:37;8.80;;;4.80;;
65853;SDS011;52627;48.838;2.402;2023-04-25T07:00:05;8.50;;;4.30;;
65853;SDS011;52627;48.838;2.402;2023-04-25T07:02:35;7.70;;;4.40;;
65853;SDS011;52627;48.838;2.402;2023-04-25T07:05:03;9.00;;;4.70;;
65853;SDS011;52627;48.838;2.402;2023-04-25T07:07:30;9.00;;;4.60;;
65853;SDS011;52627;48.838;2.402;2023-04-25T07:09:57;7.30;;;4.30;;
65853;SDS011;52627;48.838;2.402;2023-04-25T07:12:24;8.70;;;4.20;;
65853;SDS011;52627;48.838;2.402;2023-04-25T07:14:51;9.00;;;5.20;;
65853;SDS011;52627;48.838;2.402;2023-04-25T07:17:18;10.90;;;5.90;;
65853;SDS011;52627;48.838;2.402;2023-04-25T07:19:44;7.80;;;5.70;;
65853;SDS011;52627;48.838;2.402;2023-04-25T07:22:11;8.90;;;6.30;;
65853;SDS011;52627;48.838;2.402;2023-04-25T07:24:38;12.50;;;7.10;;
65853;SDS011;52627;48.838;2.402;2023-04-25T07:27:05;11.80;;;7.90;;
65853;SDS011;52627;48.838;2.402;2023-04-25T07:29:32;12.70;;;7.90;;
65853;SDS011;52627;48.838;2.402;2023-04-25T07:32:02;11.80;;;8.20;;
65853;SDS011;52627;48.838;2.402;2023-04-25T07:34:29;12.70;;;8.00;;
65853;SDS011;52627;48.838;2.402;2023-04-25T07:36:56;12.20;;;7.30;;
65853;SDS011;52627;48.838;2.402;2023-04-25T07:39:23;12.80;;;8.00;;
65853;SDS011;52627;48.838;2.402;2023-04-25T07:41:50;15.70;;;8.50;;
65853;SDS011;52627;48.838;2.402;2023-04-25T07:44:19;16.20;;;9.90;;
65853;SDS011;52627;48.838;2.402;2023-04-25T07:46:46;16.40;;;10.00;;
65853;SDS011;52627;48.838;2.402;2023-04-25T07:49:13;14.10;;;10.10;;
65853;SDS011;52627;48.838;2.402;2023-04-25T07:51:40;20.10;;;11.40;;
65853;SDS011;52627;48.838;2.402;2023-04-25T07:54:13;21.50;;;11.30;;
65853;SDS011;52627;48.838;2.402;2023-04-25T07:59:18;18.20;;;10.40;;
65853;SDS011;52627;48.838;2.402;2023-04-25T08:01:45;26.10;;;10.70;;
65853;SDS011;52627;48.838;2.402;2023-04-25T08:04:12;17.70;;;10.00;;
65853;SDS011;52627;48.838;2.402;2023-04-25T08:06:39;19.50;;;9.60;;
65853;SDS011;52627;48.838;2.402;2023-04-25T08:09:07;18.80;;;10.80;;
65853;SDS011;52627;48.838;2.402;2023-04-25T08:11:35;21.60;;;11.30;;
65853;SDS011;52627;48.838;2.402;2023-04-25T08:14:03;21.80;;;10.80;;
65853;SDS011;52627;48.838;2.402;2023-04-25T08:16:30;21.30;;;9.40;;
65853;SDS011;52627;48.838;2.402;2023-04-25T08:18:57;18.60;;;9.40;;
65853;SDS011;52627;48.838;2.402;2023-04-25T08:21:23;17.50;;;10.10;;
65853;SDS011;52627;48.838;2.402;2023-04-25T08:23:50;21.20;;;9.50;;
65853;SDS011;52627;48.838;2.402;2023-04-25T08:26:17;18.00;;;8.70;;
65853;SDS011;52627;48.838;2.402;2023-04-25T08:28:44;18.30;;;8.20;;
65853;SDS011;52627;48.838;2.402;2023-04-25T08:31:10;15.30;;;8.30;;
65853;SDS011;52627;48.838;2.402;2023-04-25T08:33:37;17.10;;;8.20;;
65853;SDS011;52627;48.838;2.402;2023-04-25T08:36:04;17.90;;;8.00;;
65853;SDS011;52627;48.838;2.402;2023-04-25T08:38:32;14.00;;;7.20;;
65853;SDS011;52627;48.838;2.402;2023-04-25T08:41:00;14.00;;;6.90;;
65853;SDS011;52627;48.838;2.402;2023-04-25T08:43:30;14.20;;;7.00;;
65853;SDS011;52627;48.838;2.402;2023-04-25T08:46:00;15.30;;;7.60;;
65853;SDS011;52627;48.838;2.402;2023-04-25T08:48:27;17.50;;;6.80;;
65853;SDS011;52627;48.838;2.402;2023-04-25T08:50:56;13.50;;;6.20;;
65853;SDS011;52627;48.838;2.402;2023-04-25T08:53:27;15.00;;;6.30;;
65853;SDS011;52627;48.838;2.402;2023-04-25T08:55:57;10.80;;;6.50;;
65853;SDS011;52627;48.838;2.402;2023-04-25T08:58:24;12.30;;;6.10;;
65853;SDS011;52627;48.838;2.402;2023-04-25T09:00:52;13.60;;;6.70;;
65853;SDS011;52627;48.838;2.402;2023-04-25T09:03:19;10.20;;;6.30;;
65853;SDS011;52627;48.838;2.402;2023-04-25T09:05:46;14.70;;;6.50;;
65853;SDS011;52627;48.838;2.402;2023-04-25T09:08:13;13.60;;;6.80;;
65853;SDS011;52627;48.838;2.402;2023-04-25T09:10:39;13.80;;;6.00;;
65853;SDS011;52627;48.838;2.402;2023-04-25T09:13:14;14.50;;;6.30;;
65853;SDS011;52627;48.838;2.402;2023-04-25T09:15:53;15.50;;;6.50;;
65853;SDS011;52627;48.838;2.402;2023-04-25T09:18:25;15.00;;;6.30;;
65853;SDS011;52627;48.838;2.402;2023-04-25T09:21:07;14.90;;;6.00;;
65853;SDS011;52627;48.838;2.402;2023-04-25T09:23:45;13.70;;;5.60;;
65853;SDS011;52627;48.838;2.402;2023-04-25T09:26:15;13.20;;;5.80;;
65853;SDS011;52627;48.838;2.402;2023-04-25T09:28:43;12.00;;;5.00;;
65853;SDS011;52627;48.838;2.402;2023-04-25T09:31:12;9.90;;;5.20;;
65853;SDS011;52627;48.838;2.402;2023-04-25T09:33:48;9.40;;;5.10;;
65853;SDS011;52627;48.838;2.402;2023-04-25T09:36:17;10.70;;;4.80;;
65853;SDS011;52627;48.838;2.402;2023-04-25T09:38:45;13.80;;;5.60;;
65853;SDS011;52627;48.838;2.402;2023-04-25T09:41:13;9.80;;;5.60;;
65853;SDS011;52627;48.838;2.402;2023-04-25T09:43:39;9.90;;;5.20;;
65853;SDS011;52627;48.838;2.402;2023-04-25T09:46:12;11.60;;;5.80;;
65853;SDS011;52627;48.838;2.402;2023-04-25T09:48:40;13.40;;;5.70;;
65853;SDS011;52627;48.838;2.402;2023-04-25T09:51:12;13.40;;;5.40;;
65853;SDS011;52627;48.838;2.402;2023-04-25T09:53:42;11.10;;;5.80;;
65853;SDS011;52627;48.838;2.402;2023-04-25T09:56:11;12.70;;;6.00;;
65853;SDS011;52627;48.838;2.402;2023-04-25T09:58:40;11.50;;;4.80;;
65853;SDS011;52627;48.838;2.402;2023-04-25T10:01:09;12.00;;;6.00;;
65853;SDS011;52627;48.838;2.402;2023-04-25T10:03:38;10.30;;;5.90;;
65853;SDS011;52627;48.838;2.402;2023-04-25T10:06:13;14.00;;;5.60;;
65853;SDS011;52627;48.838;2.402;2023-04-25T10:08:50;11.60;;;6.40;;
65853;SDS011;52627;48.838;2.402;2023-04-25T10:11:17;13.70;;;6.70;;
65853;SDS011;52627;48.838;2.402;2023-04-25T10:13:45;11.80;;;5.90;;
65853;SDS011;52627;48.838;2.402;2023-04-25T10:16:14;13.50;;;6.00;;
65853;SDS011;52627;48.838;2.402;2023-04-25T10:18:42;13.80;;;5.40;;
65853;SDS011;52627;48.838;2.402;2023-04-25T10:21:10;16.50;;;6.90;;
65853;SDS011;52627;48.838;2.402;2023-04-25T10:23:37;14.10;;;6.20;;
65853;SDS011;52627;48.838;2.402;2023-04-25T10:26:05;14.80;;;6.50;;
65853;SDS011;52627;48.838;2.402;2023-04-25T10:28:58;13.40;;;6.20;;
65853;SDS011;52627;48.838;2.402;2023-04-25T10:31:29;13.60;;;5.80;;
65853;SDS011;52627;48.838;2.402;2023-04-25T10:33:59;9.80;;;4.90;;
65853;SDS011;52627;48.838;2.402;2023-04-25T10:36:31;14.50;;;6.10;;
65853;SDS011;52627;48.838;2.402;2023-04-25T10:39:03;16.50;;;6.30;;
65853;SDS011;52627;48.838;2.402;2023-04-25T10:41:46;13.60;;;5.40;;
65853;SDS011;52627;48.838;2.402;2023-04-25T10:44:18;13.40;;;5.90;;
65853;SDS011;52627;48.838;2.402;2023-04-25T10:46:46;11.10;;;5.10;;
65853;SDS011;52627;48.838;2.402;2023-04-25T10:49:37;10.30;;;5.30;;
65853;SDS011;52627;48.838;2.402;2023-04-25T10:54:55;10.00;;;5.10;;
65853;SDS011;52627;48.838;2.402;2023-04-25T10:57:39;9.70;;;4.40;;
65853;SDS011;52627;48.838;2.402;2023-04-25T11:00:18;9.30;;;5.00;;
65853;SDS011;52627;48.838;2.402;2023-04-25T11:05:36;8.30;;;3.70;;
65853;SDS011;52627;48.838;2.402;2023-04-25T11:08:35;9.60;;;4.50;;
65853;SDS011;52627;48.838;2.402;2023-04-25T11:11:09;7.20;;;4.00;;
65853;SDS011;52627;48.838;2.402;2023-04-25T11:13:36;8.20;;;4.10;;
65853;SDS011;52627;48.838;2.402;2023-04-25T11:16:03;9.30;;;4.10;;
65853;SDS011;52627;48.838;2.402;2023-04-25T11:18:43;8.40;;;3.50;;
65853;SDS011;52627;48.838;2.402;2023-04-25T11:21:11;7.90;;;4.50;;
65853;SDS011;52627;48.838;2.402;2023-04-25T11:23:38;7.00;;;3.80;;
65853;SDS011;52627;48.838;2.402;2023-04-25T11:26:05;10.60;;;3.90;;
65853;SDS011;52627;48.838;2.402;2023-04-25T11:28:32;10.20;;;4.60;;
65853;SDS011;52627;48.838;2.402;2023-04-25T11:30:59;9.10;;;4.60;;
65853;SDS011;52627;48.838;2.402;2023-04-25T11:33:26;34.80;;;15.10;;
65853;SDS011;52627;48.838;2.402;2023-04-25T11:35:56;16.20;;;7.30;;
65853;SDS011;52627;48.838;2.402;2023-04-25T11:38:24;87.70;;;16.50;;
65853;SDS011;52627;48.838;2.402;2023-04-25T11:40:53;16.00;;;5.40;;
65853;SDS011;52627;48.838;2.402;2023-04-25T11:43:22;9.40;;;4.60;;
65853;SDS011;52627;48.838;2.402;2023-04-25T11:45:49;11.20;;;4.60;;
65853;SDS011;52627;48.838;2.402;2023-04-25T11:48:19;12.00;;;4.90;;
65853;SDS011;52627;48.838;2.402;2023-04-25T11:50:53;8.30;;;3.80;;
65853;SDS011;52627;48.838;2.402;2023-04-25T11:53:21;9.70;;;3.60;;
65853;SDS011;52627;48.838;2.402;2023-04-25T11:55:48;10.80;;;3.80;;
65853;SDS011;52627;48.838;2.402;2023-04-25T11:58:15;11.40;;;4.40;;
65853;SDS011;52627;48.838;2.402;2023-04-25T12:00:42;8.80;;;3.70;;
65853;SDS011;52627;48.838;2.402;2023-04-25T12:03:19;10.30;;;3.90;;
65853;SDS011;52627;48.838;2.402;2023-04-25T12:08:16;10.60;;;4.60;;
65853;SDS011;52627;48.838;2.402;2023-04-25T12:10:45;11.70;;;4.70;;
65853;SDS011;52627;48.838;2.402;2023-04-25T12:13:24;17.00;;;5.00;;
65853;SDS011;52627;48.838;2.402;2023-04-25T12:15:54;9.90;;;4.00;;
65853;SDS011;52627;48.838;2.402;2023-04-25T12:18:23;10.60;;;4.00;;
65853;SDS011;52627;48.838;2.402;2023-04-25T12:20:54;7.60;;;3.70;;
65853;SDS011;52627;48.838;2.402;2023-04-25T12:23:29;25.10;;;5.60;;
65853;SDS011;52627;48.838;2.402;2023-04-25T12:25:56;14.20;;;5.20;;
65853;SDS011;52627;48.838;2.402;2023-04-25T12:28:25;21.60;;;5.30;;
65853;SDS011;52627;48.838;2.402;2023-04-25T12:30:55;13.80;;;4.50;;
65853;SDS011;52627;48.838;2.402;2023-04-25T12:33:23;12.40;;;4.60;;
65853;SDS011;52627;48.838;2.402;2023-04-25T12:35:52;12.30;;;4.70;;
65853;SDS011;52627;48.838;2.402;2023-04-25T12:38:28;15.80;;;4.60;;
65853;SDS011;52627;48.838;2.402;2023-04-25T12:40:57;8.30;;;4.00;;
65853;SDS011;52627;48.838;2.402;2023-04-25T12:43:24;17.90;;;4.70;;
65853;SDS011;52627;48.838;2.402;2023-04-25T12:45:53;12.90;;;4.50;;
65853;SDS011;52627;48.838;2.402;2023-04-25T12:48:21;11.70;;;4.60;;
65853;SDS011;52627;48.838;2.402;2023-04-25T12:50:50;13.70;;;4.80;;
65853;SDS011;52627;48.838;2.402;2023-04-25T12:53:19;18.80;;;5.20;;
65853;SDS011;52627;48.838;2.402;2023-04-25T12:55:47;8.70;;;4.40;;
65853;SDS011;52627;48.838;2.402;2023-04-25T12:58:15;11.30;;;4.40;;
65853;SDS011;52627;48.838;2.402;2023-04-25T13:00:44;11.00;;;4.30;;
65853;SDS011;52627;48.838;2.402;2023-04-25T13:03:11;12.30;;;5.30;;
65853;SDS011;52627;48.838;2.402;2023-04-25T13:05:39;11.90;;;4.30;;
65853;SDS011;52627;48.838;2.402;2023-04-25T13:08:07;9.60;;;4.00;;
65853;SDS011;52627;48.838;2.402;2023-04-25T13:10:34;9.10;;;4.50;;
65853;SDS011;52627;48.838;2.402;2023-04-25T13:13:02;13.70;;;5.00;;
65853;SDS011;52627;48.838;2.402;2023-04-25T13:15:29;12.10;;;4.30;;
65853;SDS011;52627;48.838;2.402;2023-04-25T13:17:57;11.60;;;4.60;;
65853;SDS011;52627;48.838;2.402;2023-04-25T13:20:24;11.50;;;4.70;;
65853;SDS011;52627;48.838;2.402;2023-04-25T13:22:51;9.00;;;3.80;;
65853;SDS011;52627;48.838;2.402;2023-04-25T13:25:17;9.20;;;4.20;;
65853;SDS011;52627;48.838;2.402;2023-04-25T13:27:45;9.40;;;3.80;;
65853;SDS011;52627;48.838;2.402;2023-04-25T13:30:13;11.30;;;4.10;;
65853;SDS011;52627;48.838;2.402;2023-04-25T13:32:40;9.60;;;4.20;;
65853;SDS011;52627;48.838;2.402;2023-04-25T13:35:12;10.00;;;4.20;;
65853;SDS011;52627;48.838;2.402;2023-04-25T13:37:40;9.20;;;4.40;;
65853;SDS011;52627;48.838;2.402;2023-04-25T13:40:09;7.60;;;3.50;;
65853;SDS011;52627;48.838;2.402;2023-04-25T13:42:38;12.00;;;5.30;;
65853;SDS011;52627;48.838;2.402;2023-04-25T13:45:06;9.00;;;3.60;;
65853;SDS011;52627;48.838;2.402;2023-04-25T13:47:34;11.30;;;3.70;;
65853;SDS011;52627;48.838;2.402;2023-04-25T13:50:01;5.80;;;3.20;;
65853;SDS011;52627;48.838;2.402;2023-04-25T13:52:29;10.70;;;3.30;;
65853;SDS011;52627;48.838;2.402;2023-04-25T13:54:57;6.50;;;3.00;;
65853;SDS011;52627;48.838;2.402;2023-04-25T13:57:24;9.70;;;3.10;;
65853;SDS011;52627;48.838;2.402;2023-04-25T13:59:51;8.00;;;3.00;;
65853;SDS011;52627;48.838;2.402;2023-04-25T14:02:19;9.80;;;3.70;;
65853;SDS011;52627;48.838;2.402;2023-04-25T14:04:46;11.40;;;3.40;;
65853;SDS011;52627;48.838;2.402;2023-04-25T14:07:13;10.50;;;3.30;;
65853;SDS011;52627;48.838;2.402;2023-04-25T14:09:44;9.10;;;3.50;;
65853;SDS011;52627;48.838;2.402;2023-04-25T14:12:12;11.90;;;4.60;;
65853;SDS011;52627;48.838;2.402;2023-04-25T14:14:38;9.60;;;4.30;;
65853;SDS011;52627;48.838;2.402;2023-04-25T14:17:05;8.40;;;3.90;;
65853;SDS011;52627;48.838;2.402;2023-04-25T14:19:33;5.90;;;3.00;;
65853;SDS011;52627;48.838;2.402;2023-04-25T14:22:00;7.90;;;3.50;;
65853;SDS011;52627;48.838;2.402;2023-04-25T14:24:27;9.30;;;3.40;;
65853;SDS011;52627;48.838;2.402;2023-04-25T14:26:54;8.50;;;3.60;;
65853;SDS011;52627;48.838;2.402;2023-04-25T14:29:20;8.20;;;3.60;;
65853;SDS011;52627;48.838;2.402;2023-04-25T14:31:47;6.00;;;3.40;;
65853;SDS011;52627;48.838;2.402;2023-04-25T14:34:15;13.00;;;3.90;;
65853;SDS011;52627;48.838;2.402;2023-04-25T14:36:41;12.10;;;4.30;;
65853;SDS011;52627;48.838;2.402;2023-04-25T14:39:08;10.90;;;3.80;;
65853;SDS011;52627;48.838;2.402;2023-04-25T14:41:36;13.50;;;3.90;;
65853;SDS011;52627;48.838;2.402;2023-04-25T14:44:04;13.10;;;4.60;;
65853;SDS011;52627;48.838;2.402;2023-04-25T14:46:30;7.60;;;3.10;;
65853;SDS011;52627;48.838;2.402;2023-04-25T14:48:57;10.20;;;3.20;;
65853;SDS011;52627;48.838;2.402;2023-04-25T14:51:24;8.90;;;3.80;;
65853;SDS011;52627;48.838;2.402;2023-04-25T14:53:52;6.90;;;3.10;;